sensor_id;sensor_type;location;lat;lon;timestamp;pressure;altitude;pressure_sealevel;temperature;humidity
32492;BME280;20605;49.742;18.802;2022-12-24T00:00:38;96720.92;;;5.46;100.00
32492;BME280;20605;49.742;18.802;2022-12-24T00:03:05;96710.45;;;5.50;100.00
32492;BME280;20605;49.742;18.802;2022-12-24T00:05:31;96713.80;;;5.54;100.00
32492;BME280;20605;49.742;18.802;2022-12-24T00:07:58;96711.97;;;5.57;100.00
32492;BME280;20605;49.742;18.802;2022-12-24T00:10:25;96708.98;;;5.56;100.00
32492;BME280;20605;49.742;18.802;2022-12-24T00:12:52;96703.56;;;5.51;100.00
32492;BME280;20605;49.742;18.802;2022-12-24T00:15:18;96709.97;;;5.52;100.00
32492;BME280;20605;49.742;18.802;2022-12-24T00:17:45;96703.02;;;5.54;100.00
32492;BME280;20605;49.742;18.802;2022-12-24T00:20:12;96694.88;;;5.53;100.00
32492;BME280;20605;49.742;18.802;2022-12-24T00:22:38;96686.72;;;5.52;100.00
32492;BME280;20605;49.742;18.802;2022-12-24T00:25:05;96683.74;;;5.51;100.00
32492;BME280;20605;49.742;18.802;2022-12-24T00:27:32;96671.77;;;5.49;100.00
32492;BME280;20605;49.742;18.802;2022-12-24T00:29:59;96658.90;;;5.47;100.00
32492;BME280;20605;49.742;18.802;2022-12-24T00:32:26;96662.68;;;5.50;100.00
32492;BME280;20605;49.742;18.802;2022-12-24T00:34:53;96656.09;;;5.55;100.00
32492;BME280;20605;49.742;18.802;2022-12-24T00:37:19;96653.46;;;5.56;100.00
32492;BME280;20605;49.742;18.802;2022-12-24T00:39:52;96650.83;;;5.58;100.00
32492;BME280;20605;49.742;18.802;2022-12-24T00:42:19;96652.47;;;5.61;100.00
32492;BME280;20605;49.742;18.802;2022-12-24T00:44:46;96645.97;;;5.62;100.00
32492;BME280;20605;49.742;18.802;2022-12-24T00:47:13;96656.25;;;5.64;100.00
32492;BME280;20605;49.742;18.802;2022-12-24T00:49:39;96646.77;;;5.64;100.00
32492;BME280;20605;49.742;18.802;2022-12-24T00:52:06;96648.91;;;5.65;100.00
32492;BME280;20605;49.742;18.802;2022-12-24T00:54:33;96654.52;;;5.64;100.00
32492;BME280;20605;49.742;18.802;2022-12-24T00:56:59;96644.72;;;5.61;100.00
32492;BME280;20605;49.742;18.802;2022-12-24T00:59:26;96639.25;;;5.56;100.00
32492;BME280;20605;49.742;18.802;2022-12-24T01:01:53;96642.77;;;5.54;100.00
32492;BME280;20605;49.742;18.802;2022-12-24T01:04:21;96651.33;;;5.56;100.00
32492;BME280;20605;49.742;18.802;2022-12-24T01:07:06;96652.92;;;5.60;100.00
32492;BME280;20605;49.742;18.802;2022-12-24T01:09:33;96654.52;;;5.64;100.00
32492;BME280;20605;49.742;18.802;2022-12-24T01:11:59;96647.08;;;5.68;100.00
32492;BME280;20605;49.742;18.802;2022-12-24T01:14:26;96651.30;;;5.71;100.00
32492;BME280;20605;49.742;18.802;2022-12-24T01:16:53;96663.19;;;5.76;100.00
32492;BME280;20605;49.742;18.802;2022-12-24T01:19:20;96654.94;;;5.78;100.00
32492;BME280;20605;49.742;18.802;2022-12-24T01:21:46;96659.12;;;5.82;100.00
32492;BME280;20605;49.742;18.802;2022-12-24T01:24:14;96659.92;;;5.84;100.00
32492;BME280;20605;49.742;18.802;2022-12-24T01:26:42;96658.98;;;5.87;100.00
32492;BME280;20605;49.742;18.802;2022-12-24T01:29:09;96662.39;;;5.89;100.00
32492;BME280;20605;49.742;18.802;2022-12-24T01:31:35;96666.57;;;5.93;100.00
32492;BME280;20605;49.742;18.802;2022-12-24T01:34:02;96666.88;;;5.97;100.00
32492;BME280;20605;49.742;18.802;2022-12-24T01:36:29;96672.80;;;6.01;100.00
32492;BME280;20605;49.742;18.802;2022-12-24T01:38:56;96673.53;;;6.04;100.00
32492;BME280;20605;49.742;18.802;2022-12-24T01:41:23;96672.25;;;6.04;100.00
32492;BME280;20605;49.742;18.802;2022-12-24T01:44:29;96672.64;;;6.05;100.00
32492;BME280;20605;49.742;18.802;2022-12-24T01:47:16;96672.15;;;6.07;100.00
32492;BME280;20605;49.742;18.802;2022-12-24T01:49:48;96657.83;;;6.10;100.00
32492;BME280;20605;49.742;18.802;2022-12-24T01:52:22;96654.16;;;6.17;100.00
32492;BME280;20605;49.742;18.802;2022-12-24T01:55:03;96651.42;;;6.22;100.00
32492;BME280;20605;49.742;18.802;2022-12-24T01:57:34;96653.91;;;6.25;100.00
32492;BME280;20605;49.742;18.802;2022-12-24T02:00:06;96659.08;;;6.25;100.00
32492;BME280;20605;49.742;18.802;2022-12-24T02:02:38;96652.02;;;6.30;100.00
32492;BME280;20605;49.742;18.802;2022-12-24T02:07:50;96658.12;;;6.41;100.00
32492;BME280;20605;49.742;18.802;2022-12-24T02:10:18;96662.64;;;6.47;100.00
32492;BME280;20605;49.742;18.802;2022-12-24T02:12:45;96664.59;;;6.52;100.00
32492;BME280;20605;49.742;18.802;2022-12-24T02:15:15;96659.21;;;6.59;100.00
32492;BME280;20605;49.742;18.802;2022-12-24T02:17:57;96663.33;;;6.64;100.00
32492;BME280;20605;49.742;18.802;2022-12-24T02:32:32;96681.95;;;6.87;100.00
32492;BME280;20605;49.742;18.802;2022-12-24T02:35:24;96679.99;;;6.94;100.00
32492;BME280;20605;49.742;18.802;2022-12-24T02:37:57;96671.72;;;6.96;100.00
32492;BME280;20605;49.742;18.802;2022-12-24T02:40:30;96668.69;;;6.96;100.00
32492;BME280;20605;49.742;18.802;2022-12-24T02:43:02;96687.09;;;7.00;100.00
32492;BME280;20605;49.742;18.802;2022-12-24T02:45:31;96692.05;;;7.06;100.00
32492;BME280;20605;49.742;18.802;2022-12-24T02:48:00;96705.23;;;7.12;100.00
32492;BME280;20605;49.742;18.802;2022-12-24T02:50:27;96713.79;;;7.14;100.00
32492;BME280;20605;49.742;18.802;2022-12-24T02:52:54;96726.63;;;7.17;100.00
32492;BME280;20605;49.742;18.802;2022-12-24T02:55:25;96727.37;;;7.20;100.00
32492;BME280;20605;49.742;18.802;2022-12-24T03:00:57;96734.13;;;7.25;100.00
32492;BME280;20605;49.742;18.802;2022-12-24T03:12:14;96755.66;;;7.50;100.00
32492;BME280;20605;49.742;18.802;2022-12-24T03:14:43;96751.50;;;7.58;100.00
32492;BME280;20605;49.742;18.802;2022-12-24T03:17:12;96752.97;;;7.65;100.00
32492;BME280;20605;49.742;18.802;2022-12-24T03:19:39;96754.88;;;7.71;100.00
32492;BME280;20605;49.742;18.802;2022-12-24T03:22:08;96761.98;;;7.78;100.00
32492;BME280;20605;49.742;18.802;2022-12-24T03:24:37;96763.47;;;7.83;100.00
32492;BME280;20605;49.742;18.802;2022-12-24T03:27:05;96776.77;;;7.86;100.00
32492;BME280;20605;49.742;18.802;2022-12-24T03:29:33;96774.96;;;7.88;100.00
32492;BME280;20605;49.742;18.802;2022-12-24T03:32:02;96777.89;;;7.91;100.00
32492;BME280;20605;49.742;18.802;2022-12-24T03:34:29;96774.40;;;7.92;100.00
32492;BME280;20605;49.742;18.802;2022-12-24T03:36:57;96774.34;;;7.93;100.00
32492;BME280;20605;49.742;18.802;2022-12-24T03:39:24;96757.38;;;7.96;100.00
32492;BME280;20605;49.742;18.802;2022-12-24T03:41:51;96762.95;;;7.97;100.00
32492;BME280;20605;49.742;18.802;2022-12-24T03:44:17;96768.08;;;7.99;100.00
32492;BME280;20605;49.742;18.802;2022-12-24T03:46:45;96771.91;;;8.00;100.00
32492;BME280;20605;49.742;18.802;2022-12-24T03:49:12;96782.62;;;8.03;100.00
32492;BME280;20605;49.742;18.802;2022-12-24T03:51:38;96785.55;;;8.05;100.00
32492;BME280;20605;49.742;18.802;2022-12-24T03:54:05;96793.66;;;8.08;100.00
32492;BME280;20605;49.742;18.802;2022-12-24T03:56:32;96786.67;;;8.10;100.00
32492;BME280;20605;49.742;18.802;2022-12-24T03:58:58;96786.61;;;8.11;100.00
32492;BME280;20605;49.742;18.802;2022-12-24T04:01:25;96768.79;;;8.14;100.00
32492;BME280;20605;49.742;18.802;2022-12-24T04:03:52;96801.88;;;8.19;100.00
32492;BME280;20605;49.742;18.802;2022-12-24T04:06:19;96801.88;;;8.19;100.00
32492;BME280;20605;49.742;18.802;2022-12-24T04:08:46;96803.12;;;8.21;100.00
32492;BME280;20605;49.742;18.802;2022-12-24T04:11:14;96784.45;;;8.23;100.00
32492;BME280;20605;49.742;18.802;2022-12-24T04:13:42;96799.00;;;8.27;100.00
32492;BME280;20605;49.742;18.802;2022-12-24T04:16:11;96793.23;;;8.30;100.00
32492;BME280;20605;49.742;18.802;2022-12-24T04:18:40;96788.84;;;8.32;100.00
32492;BME280;20605;49.742;18.802;2022-12-24T04:21:07;96789.26;;;8.33;100.00
32492;BME280;20605;49.742;18.802;2022-12-24T04:23:36;96797.89;;;8.34;100.00
32492;BME280;20605;49.742;18.802;2022-12-24T04:26:05;96793.15;;;8.33;100.00
32492;BME280;20605;49.742;18.802;2022-12-24T04:28:34;96802.63;;;8.34;100.00
32492;BME280;20605;49.742;18.802;2022-12-24T04:31:04;96807.75;;;8.36;100.00
32492;BME280;20605;49.742;18.802;2022-12-24T04:33:33;96799.06;;;8.37;100.00
32492;BME280;20605;49.742;18.802;2022-12-24T04:36:00;96803.41;;;8.36;100.00
32492;BME280;20605;49.742;18.802;2022-12-24T04:38:28;96803.86;;;8.36;100.00
32492;BME280;20605;49.742;18.802;2022-12-24T04:41:04;96808.09;;;8.38;100.00
32492;BME280;20605;49.742;18.802;2022-12-24T04:43:33;96797.20;;;8.40;100.00
32492;BME280;20605;49.742;18.802;2022-12-24T04:46:09;96807.06;;;8.42;100.00
32492;BME280;20605;49.742;18.802;2022-12-24T04:48:40;96809.14;;;8.44;100.00
32492;BME280;20605;49.742;18.802;2022-12-24T04:51:08;96809.99;;;8.45;100.00
32492;BME280;20605;49.742;18.802;2022-12-24T04:53:35;96810.84;;;8.45;100.00
32492;BME280;20605;49.742;18.802;2022-12-24T04:56:03;96811.34;;;8.43;100.00
32492;BME280;20605;49.742;18.802;2022-12-24T04:58:42;96812.64;;;8.43;100.00
32492;BME280;20605;49.742;18.802;2022-12-24T05:01:18;96820.77;;;8.46;100.00
32492;BME280;20605;49.742;18.802;2022-12-24T05:03:47;96806.04;;;8.46;100.00
32492;BME280;20605;49.742;18.802;2022-12-24T05:06:18;96811.11;;;8.49;100.00
32492;BME280;20605;49.742;18.802;2022-12-24T05:08:46;96808.06;;;8.50;100.00
32492;BME280;20605;49.742;18.802;2022-12-24T05:11:13;96810.27;;;8.49;100.00
32492;BME280;20605;49.742;18.802;2022-12-24T05:13:42;96814.03;;;8.52;100.00
32492;BME280;20605;49.742;18.802;2022-12-24T05:16:10;96825.66;;;8.54;100.00
32492;BME280;20605;49.742;18.802;2022-12-24T05:18:38;96824.88;;;8.52;100.00
32492;BME280;20605;49.742;18.802;2022-12-24T05:21:09;96821.43;;;8.51;100.00
32492;BME280;20605;49.742;18.802;2022-12-24T05:23:38;96822.39;;;8.48;100.00
32492;BME280;20605;49.742;18.802;2022-12-24T05:26:42;96828.94;;;8.47;100.00
32492;BME280;20605;49.742;18.802;2022-12-24T05:29:11;96836.78;;;8.45;100.00
32492;BME280;20605;49.742;18.802;2022-12-24T05:31:38;96839.44;;;8.44;100.00
32492;BME280;20605;49.742;18.802;2022-12-24T05:34:06;96838.59;;;8.43;100.00
32492;BME280;20605;49.742;18.802;2022-12-24T05:36:34;96840.67;;;8.45;100.00
32492;BME280;20605;49.742;18.802;2022-12-24T05:39:00;96839.44;;;8.44;100.00
32492;BME280;20605;49.742;18.802;2022-12-24T05:41:28;96840.41;;;8.41;100.00
32492;BME280;20605;49.742;18.802;2022-12-24T05:43:54;96846.11;;;8.39;100.00
32492;BME280;20605;49.742;18.802;2022-12-24T05:46:22;96840.52;;;8.38;100.00
32492;BME280;20605;49.742;18.802;2022-12-24T05:48:50;96846.22;;;8.36;100.00
32492;BME280;20605;49.742;18.802;2022-12-24T05:51:19;96856.15;;;8.37;100.00
32492;BME280;20605;49.742;18.802;2022-12-24T05:53:48;96844.47;;;8.37;100.00
32492;BME280;20605;49.742;18.802;2022-12-24T05:56:19;96850.56;;;8.36;100.00
32492;BME280;20605;49.742;18.802;2022-12-24T05:58:46;96850.63;;;8.34;100.00
32492;BME280;20605;49.742;18.802;2022-12-24T06:01:14;96859.45;;;8.29;100.00
32492;BME280;20605;49.742;18.802;2022-12-24T06:03:41;96854.94;;;8.22;100.00
32492;BME280;20605;49.742;18.802;2022-12-24T06:06:18;96858.10;;;8.18;100.00
32492;BME280;20605;49.742;18.802;2022-12-24T06:08:57;96864.08;;;8.21;100.00
32492;BME280;20605;49.742;18.802;2022-12-24T06:11:39;96862.72;;;8.22;100.00
32492;BME280;20605;49.742;18.802;2022-12-24T06:14:18;96872.59;;;8.24;100.00
32492;BME280;20605;49.742;18.802;2022-12-24T06:16:45;96877.33;;;8.25;100.00
32492;BME280;20605;49.742;18.802;2022-12-24T06:19:12;96889.00;;;8.25;100.00
32492;BME280;20605;49.742;18.802;2022-12-24T06:21:38;96884.32;;;8.23;100.00
32492;BME280;20605;49.742;18.802;2022-12-24T06:24:06;96875.75;;;8.21;100.00
32492;BME280;20605;49.742;18.802;2022-12-24T06:26:32;96894.41;;;8.18;100.00
32492;BME280;20605;49.742;18.802;2022-12-24T06:28:59;96893.57;;;8.18;100.00
32492;BME280;20605;49.742;18.802;2022-12-24T06:31:26;96896.11;;;8.19;100.00
32492;BME280;20605;49.742;18.802;2022-12-24T06:33:53;96894.30;;;8.22;100.00
32492;BME280;20605;49.742;18.802;2022-12-24T06:36:24;96901.13;;;8.24;100.00
32492;BME280;20605;49.742;18.802;2022-12-24T06:38:52;96900.63;;;8.26;100.00
32492;BME280;20605;49.742;18.802;2022-12-24T06:41:20;96912.23;;;8.28;100.00
32492;BME280;20605;49.742;18.802;2022-12-24T06:43:50;96911.73;;;8.30;100.00
32492;BME280;20605;49.742;18.802;2022-12-24T06:46:18;96914.19;;;8.34;100.00
32492;BME280;20605;49.742;18.802;2022-12-24T06:48:46;96920.16;;;8.36;100.00
32492;BME280;20605;49.742;18.802;2022-12-24T06:51:15;96918.36;;;8.38;100.00
32492;BME280;20605;49.742;18.802;2022-12-24T06:53:44;96918.25;;;8.41;100.00
32492;BME280;20605;49.742;18.802;2022-12-24T06:56:12;96919.15;;;8.40;100.00
32492;BME280;20605;49.742;18.802;2022-12-24T06:58:39;96930.77;;;8.42;100.00
32492;BME280;20605;49.742;18.802;2022-12-24T07:01:10;96937.66;;;8.43;100.00
32492;BME280;20605;49.742;18.802;2022-12-24T07:03:39;96929.47;;;8.42;100.00
32492;BME280;20605;49.742;18.802;2022-12-24T07:06:16;96934.55;;;8.45;100.00
32492;BME280;20605;49.742;18.802;2022-12-24T07:08:44;96950.46;;;8.47;100.00
32492;BME280;20605;49.742;18.802;2022-12-24T07:11:11;96944.36;;;8.48;100.00
32492;BME280;20605;49.742;18.802;2022-12-24T07:13:37;96947.30;;;8.51;100.00
32492;BME280;20605;49.742;18.802;2022-12-24T07:16:04;96945.16;;;8.50;100.00
32492;BME280;20605;49.742;18.802;2022-12-24T07:18:31;96948.59;;;8.51;100.00
32492;BME280;20605;49.742;18.802;2022-12-24T07:20:58;96945.16;;;8.50;100.00
32492;BME280;20605;49.742;18.802;2022-12-24T07:23:25;96950.29;;;8.52;100.00
32492;BME280;20605;49.742;18.802;2022-12-24T07:25:52;96944.59;;;8.54;100.00
32492;BME280;20605;49.742;18.802;2022-12-24T07:28:19;96954.02;;;8.57;100.00
32492;BME280;20605;49.742;18.802;2022-12-24T07:30:47;96976.52;;;8.56;100.00
32492;BME280;20605;49.742;18.802;2022-12-24T07:33:14;96971.28;;;8.58;100.00
32492;BME280;20605;49.742;18.802;2022-12-24T07:35:40;96964.73;;;8.59;100.00
32492;BME280;20605;49.742;18.802;2022-12-24T07:38:07;96969.53;;;8.58;100.00
32492;BME280;20605;49.742;18.802;2022-12-24T07:40:34;96966.03;;;8.59;100.00
32492;BME280;20605;49.742;18.802;2022-12-24T07:43:00;96975.51;;;8.60;100.00
32492;BME280;20605;49.742;18.802;2022-12-24T07:45:27;96987.13;;;8.62;100.00
32492;BME280;20605;49.742;18.802;2022-12-24T07:47:54;96987.02;;;8.65;100.00
32492;BME280;20605;49.742;18.802;2022-12-24T07:50:20;96992.95;;;8.68;100.00
32492;BME280;20605;49.742;18.802;2022-12-24T07:52:47;96990.23;;;8.71;100.00
32492;BME280;20605;49.742;18.802;2022-12-24T07:55:14;96993.17;;;8.74;100.00
32492;BME280;20605;49.742;18.802;2022-12-24T07:57:41;96992.27;;;8.75;100.00
32492;BME280;20605;49.742;18.802;2022-12-24T08:00:08;96995.54;;;8.80;100.00
32492;BME280;20605;49.742;18.802;2022-12-24T08:02:37;96985.43;;;8.84;100.00
32492;BME280;20605;49.742;18.802;2022-12-24T08:05:04;96982.33;;;8.86;100.00
32492;BME280;20605;49.742;18.802;2022-12-24T08:07:32;96989.66;;;8.87;100.00
32492;BME280;20605;49.742;18.802;2022-12-24T08:09:59;97001.74;;;8.88;100.00
32492;BME280;20605;49.742;18.802;2022-12-24T08:12:26;96998.30;;;8.87;100.00
32492;BME280;20605;49.742;18.802;2022-12-24T08:14:52;97005.13;;;8.90;100.00
32492;BME280;20605;49.742;18.802;2022-12-24T08:17:19;97006.82;;;8.91;100.00
32492;BME280;20605;49.742;18.802;2022-12-24T08:19:46;97005.47;;;8.92;100.00
32492;BME280;20605;49.742;18.802;2022-12-24T08:22:14;97010.27;;;8.91;100.00
32492;BME280;20605;49.742;18.802;2022-12-24T08:24:41;97014.61;;;8.91;100.00
32492;BME280;20605;49.742;18.802;2022-12-24T08:27:15;97016.75;;;8.91;100.00
32492;BME280;20605;49.742;18.802;2022-12-24T08:29:42;97026.75;;;8.90;100.00
32492;BME280;20605;49.742;18.802;2022-12-24T08:32:11;97035.33;;;8.92;100.00
32492;BME280;20605;49.742;18.802;2022-12-24T08:34:37;97026.70;;;8.92;100.00
32492;BME280;20605;49.742;18.802;2022-12-24T08:37:04;97044.03;;;8.91;100.00
32492;BME280;20605;49.742;18.802;2022-12-24T08:39:33;97044.48;;;8.91;100.00
32492;BME280;20605;49.742;18.802;2022-12-24T08:41:59;97047.08;;;8.91;100.00
32492;BME280;20605;49.742;18.802;2022-12-24T08:44:29;97061.70;;;8.93;100.00
32492;BME280;20605;49.742;18.802;2022-12-24T08:46:59;97061.64;;;8.95;100.00
32492;BME280;20605;49.742;18.802;2022-12-24T08:49:26;97041.54;;;9.00;100.00
32492;BME280;20605;49.742;18.802;2022-12-24T08:51:53;97053.00;;;9.06;100.00
32492;BME280;20605;49.742;18.802;2022-12-24T08:54:20;97069.62;;;9.12;100.00
32492;BME280;20605;49.742;18.802;2022-12-24T08:56:48;97074.59;;;9.18;100.00
32492;BME280;20605;49.742;18.802;2022-12-24T08:59:17;97074.92;;;9.21;100.00
32492;BME280;20605;49.742;18.802;2022-12-24T09:01:43;97094.23;;;9.25;100.00
32492;BME280;20605;49.742;18.802;2022-12-24T09:04:10;97088.53;;;9.27;100.00
32492;BME280;20605;49.742;18.802;2022-12-24T09:06:37;97101.07;;;9.28;100.00
32492;BME280;20605;49.742;18.802;2022-12-24T09:09:04;97096.44;;;9.24;100.00
32492;BME280;20605;49.742;18.802;2022-12-24T09:11:32;97103.00;;;9.23;100.00
32492;BME280;20605;49.742;18.802;2022-12-24T09:14:00;97108.19;;;9.23;100.00
32492;BME280;20605;49.742;18.802;2022-12-24T09:16:27;97105.25;;;9.20;100.00
32492;BME280;20605;49.742;18.802;2022-12-24T09:18:56;97107.86;;;9.20;100.00
32492;BME280;20605;49.742;18.802;2022-12-24T09:21:22;97107.46;;;9.19;100.00
32492;BME280;20605;49.742;18.802;2022-12-24T09:23:50;97098.81;;;9.19;100.00
32492;BME280;20605;49.742;18.802;2022-12-24T09:26:22;97108.25;;;9.21;100.00
32492;BME280;20605;49.742;18.802;2022-12-24T09:28:52;97110.00;;;9.21;100.00
32492;BME280;20605;49.742;18.802;2022-12-24T09:31:19;97103.05;;;9.21;100.00
32492;BME280;20605;49.742;18.802;2022-12-24T09:33:47;97112.09;;;9.23;100.00
32492;BME280;20605;49.742;18.802;2022-12-24T09:36:16;97108.25;;;9.21;100.00
32492;BME280;20605;49.742;18.802;2022-12-24T09:38:43;97111.80;;;9.19;100.00
32492;BME280;20605;49.742;18.802;2022-12-24T09:41:21;97105.82;;;9.16;100.00
32492;BME280;20605;49.742;18.802;2022-12-24T09:43:49;97109.66;;;9.18;100.00
32492;BME280;20605;49.742;18.802;2022-12-24T09:46:27;97113.39;;;9.23;100.00
32492;BME280;20605;49.742;18.802;2022-12-24T09:49:03;97116.27;;;9.27;100.00
32492;BME280;20605;49.742;18.802;2022-12-24T09:51:41;97121.80;;;9.29;100.00
32492;BME280;20605;49.742;18.802;2022-12-24T09:54:26;97126.61;;;9.28;100.00
32492;BME280;20605;49.742;18.802;2022-12-24T09:56:53;97124.41;;;9.29;100.00
32492;BME280;20605;49.742;18.802;2022-12-24T09:59:24;97112.98;;;9.33;100.00
32492;BME280;20605;49.742;18.802;2022-12-24T10:01:54;97117.67;;;9.35;100.00
32492;BME280;20605;49.742;18.802;2022-12-24T10:04:24;97136.94;;;9.41;100.00
32492;BME280;20605;49.742;18.802;2022-12-24T10:12:46;97138.86;;;9.48;100.00
32492;BME280;20605;49.742;18.802;2022-12-24T10:15:19;97135.86;;;9.47;100.00
32492;BME280;20605;49.742;18.802;2022-12-24T10:18:25;97147.67;;;9.44;100.00
32492;BME280;20605;49.742;18.802;2022-12-24T10:26:45;97157.45;;;9.37;100.00
32492;BME280;20605;49.742;18.802;2022-12-24T10:32:06;97160.45;;;9.38;100.00
32492;BME280;20605;49.742;18.802;2022-12-24T10:34:37;97176.48;;;9.38;100.00
32492;BME280;20605;49.742;18.802;2022-12-24T10:37:15;97167.95;;;9.34;100.00
32492;BME280;20605;49.742;18.802;2022-12-24T10:39:44;97181.41;;;9.34;100.00
32492;BME280;20605;49.742;18.802;2022-12-24T10:42:12;97182.36;;;9.31;100.00
32492;BME280;20605;49.742;18.802;2022-12-24T10:44:40;97179.53;;;9.26;100.00
32492;BME280;20605;49.742;18.802;2022-12-24T10:47:08;97184.39;;;9.23;100.00
32492;BME280;20605;49.742;18.802;2022-12-24T10:52:16;97182.86;;;9.18;100.00
32492;BME280;20605;49.742;18.802;2022-12-24T10:55:10;97188.56;;;9.15;100.00
32492;BME280;20605;49.742;18.802;2022-12-24T10:57:46;97198.22;;;9.12;100.00
32492;BME280;20605;49.742;18.802;2022-12-24T11:00:21;97199.97;;;9.11;100.00
32492;BME280;20605;49.742;18.802;2022-12-24T11:05:35;97191.67;;;9.13;100.00
32492;BME280;20605;49.742;18.802;2022-12-24T11:10:52;97204.22;;;9.02;100.00
32492;BME280;20605;49.742;18.802;2022-12-24T11:13:35;97210.82;;;8.99;100.00
32492;BME280;20605;49.742;18.802;2022-12-24T11:19:04;97218.51;;;9.02;100.00
32492;BME280;20605;49.742;18.802;2022-12-24T11:21:36;97214.90;;;9.06;100.00
32492;BME280;20605;49.742;18.802;2022-12-24T11:26:48;97220.05;;;9.08;100.00
32492;BME280;20605;49.742;18.802;2022-12-24T11:29:20;97223.14;;;9.06;100.00
32492;BME280;20605;49.742;18.802;2022-12-24T11:31:49;97225.73;;;9.06;100.00
32492;BME280;20605;49.742;18.802;2022-12-24T11:34:22;97230.03;;;9.07;100.00
32492;BME280;20605;49.742;18.802;2022-12-24T11:39:54;97238.44;;;9.13;100.00
32492;BME280;20605;49.742;18.802;2022-12-24T11:42:32;97245.33;;;9.14;100.00
32492;BME280;20605;49.742;18.802;2022-12-24T11:45:05;97246.33;;;9.10;100.00
32492;BME280;20605;49.742;18.802;2022-12-24T11:47:37;97256.81;;;9.09;100.00
32492;BME280;20605;49.742;18.802;2022-12-24T11:53:06;97239.12;;;9.07;100.00
32492;BME280;20605;49.742;18.802;2022-12-24T11:55:49;97266.22;;;9.11;100.00
32492;BME280;20605;49.742;18.802;2022-12-24T12:01:34;97265.05;;;9.20;100.00
32492;BME280;20605;49.742;18.802;2022-12-24T12:03:53;97276.69;;;9.22;100.00
32492;BME280;20605;49.742;18.802;2022-12-24T12:09:24;97278.70;;;9.13;100.00
32492;BME280;20605;49.742;18.802;2022-12-24T12:17:50;97278.89;;;9.09;100.00
32492;BME280;20605;49.742;18.802;2022-12-24T12:20:29;97285.94;;;9.05;100.00
32492;BME280;20605;49.742;18.802;2022-12-24T12:23:28;97295.19;;;9.01;100.00
32492;BME280;20605;49.742;18.802;2022-12-24T12:26:44;97302.58;;;9.00;100.00
32492;BME280;20605;49.742;18.802;2022-12-24T12:28:55;97310.42;;;8.98;100.00
32492;BME280;20605;49.742;18.802;2022-12-24T12:31:44;97301.73;;;8.99;100.00
32492;BME280;20605;49.742;18.802;2022-12-24T12:34:21;97303.53;;;8.97;100.00
32492;BME280;20605;49.742;18.802;2022-12-24T12:36:59;97307.08;;;8.95;100.00
32492;BME280;20605;49.742;18.802;2022-12-24T12:39:30;97322.22;;;8.95;100.00
32492;BME280;20605;49.742;18.802;2022-12-24T12:42:18;97328.26;;;8.96;100.00
